sensor_id;sensor_type;location;lat;lon;timestamp;pressure;altitude;pressure_sealevel;temperature
68939;BMP180;59064;45.294;11.816;2024-03-29T00:02:06;100704.80;;;7.00
68939;BMP180;59064;45.294;11.816;2024-03-29T00:04:34;100708.20;;;7.00
68939;BMP180;59064;45.294;11.816;2024-03-29T00:06:59;100708.00;;;7.00
68939;BMP180;59064;45.294;11.816;2024-03-29T00:09:25;100715.00;;;7.00
68939;BMP180;59064;45.294;11.816;2024-03-29T00:11:50;100716.60;;;6.90
68939;BMP180;59064;45.294;11.816;2024-03-29T00:14:16;100712.80;;;6.90
68939;BMP180;59064;45.294;11.816;2024-03-29T00:16:41;100711.60;;;7.00
68939;BMP180;59064;45.294;11.816;2024-03-29T00:19:07;100725.60;;;7.00
68939;BMP180;59064;45.294;11.816;2024-03-29T00:21:32;100729.60;;;7.00
68939;BMP180;59064;45.294;11.816;2024-03-29T00:23:58;100728.00;;;7.00
68939;BMP180;59064;45.294;11.816;2024-03-29T00:26:23;100727.80;;;7.00
68939;BMP180;59064;45.294;11.816;2024-03-29T00:28:48;100725.60;;;7.00
68939;BMP180;59064;45.294;11.816;2024-03-29T00:31:14;100726.60;;;7.00
68939;BMP180;59064;45.294;11.816;2024-03-29T00:33:40;100722.00;;;7.00
68939;BMP180;59064;45.294;11.816;2024-03-29T00:36:05;100721.00;;;7.02
68939;BMP180;59064;45.294;11.816;2024-03-29T00:38:31;100717.40;;;7.10
68939;BMP180;59064;45.294;11.816;2024-03-29T00:40:56;100725.60;;;7.10
68939;BMP180;59064;45.294;11.816;2024-03-29T00:43:22;100723.40;;;7.10
68939;BMP180;59064;45.294;11.816;2024-03-29T00:45:47;100731.20;;;7.18
68939;BMP180;59064;45.294;11.816;2024-03-29T00:48:13;100721.60;;;7.20
68939;BMP180;59064;45.294;11.816;2024-03-29T00:50:40;100718.80;;;7.20
68939;BMP180;59064;45.294;11.816;2024-03-29T00:53:06;100718.80;;;7.20
68939;BMP180;59064;45.294;11.816;2024-03-29T00:55:31;100720.40;;;7.20
68939;BMP180;59064;45.294;11.816;2024-03-29T00:57:57;100711.40;;;7.20
68939;BMP180;59064;45.294;11.816;2024-03-29T01:00:22;100708.40;;;7.20
68939;BMP180;59064;45.294;11.816;2024-03-29T01:02:48;100713.00;;;7.10
68939;BMP180;59064;45.294;11.816;2024-03-29T01:05:13;100719.40;;;7.10
68939;BMP180;59064;45.294;11.816;2024-03-29T01:07:43;100722.40;;;7.10
68939;BMP180;59064;45.294;11.816;2024-03-29T01:10:08;100729.60;;;7.10
68939;BMP180;59064;45.294;11.816;2024-03-29T01:12:35;100732.20;;;7.10
68939;BMP180;59064;45.294;11.816;2024-03-29T01:15:02;100738.00;;;7.10
68939;BMP180;59064;45.294;11.816;2024-03-29T01:17:28;100743.80;;;7.10
68939;BMP180;59064;45.294;11.816;2024-03-29T01:19:54;100747.40;;;7.00
68939;BMP180;59064;45.294;11.816;2024-03-29T01:22:20;100741.00;;;7.10
68939;BMP180;59064;45.294;11.816;2024-03-29T01:24:45;100747.80;;;7.20
68939;BMP180;59064;45.294;11.816;2024-03-29T01:27:10;100760.00;;;7.40
68939;BMP180;59064;45.294;11.816;2024-03-29T01:29:36;100769.00;;;7.60
68939;BMP180;59064;45.294;11.816;2024-03-29T01:32:03;100773.80;;;7.60
68939;BMP180;59064;45.294;11.816;2024-03-29T01:34:29;100778.20;;;7.56
68939;BMP180;59064;45.294;11.816;2024-03-29T01:36:54;100788.80;;;7.50
68939;BMP180;59064;45.294;11.816;2024-03-29T01:39:19;100798.20;;;7.40
68939;BMP180;59064;45.294;11.816;2024-03-29T01:41:50;100803.00;;;7.40
68939;BMP180;59064;45.294;11.816;2024-03-29T01:44:15;100812.40;;;7.30
68939;BMP180;59064;45.294;11.816;2024-03-29T01:46:41;100816.00;;;7.30
68939;BMP180;59064;45.294;11.816;2024-03-29T01:49:06;100815.20;;;7.20
68939;BMP180;59064;45.294;11.816;2024-03-29T01:51:36;100821.40;;;7.20
68939;BMP180;59064;45.294;11.816;2024-03-29T01:54:02;100826.40;;;7.10
68939;BMP180;59064;45.294;11.816;2024-03-29T01:56:28;100823.60;;;7.10
68939;BMP180;59064;45.294;11.816;2024-03-29T02:01:46;100823.80;;;7.00
68939;BMP180;59064;45.294;11.816;2024-03-29T02:04:32;100838.80;;;7.00
68939;BMP180;59064;45.294;11.816;2024-03-29T02:06:58;100852.00;;;6.90
68939;BMP180;59064;45.294;11.816;2024-03-29T02:09:23;100851.00;;;6.90
68939;BMP180;59064;45.294;11.816;2024-03-29T02:11:49;100857.40;;;6.80
68939;BMP180;59064;45.294;11.816;2024-03-29T02:14:16;100855.00;;;6.80
68939;BMP180;59064;45.294;11.816;2024-03-29T02:16:42;100856.60;;;6.78
68939;BMP180;59064;45.294;11.816;2024-03-29T02:19:07;100860.80;;;6.70
68939;BMP180;59064;45.294;11.816;2024-03-29T02:21:36;100872.20;;;6.70
68939;BMP180;59064;45.294;11.816;2024-03-29T02:24:07;100881.60;;;6.74
68939;BMP180;59064;45.294;11.816;2024-03-29T02:26:33;100888.80;;;6.80
68939;BMP180;59064;45.294;11.816;2024-03-29T02:29:03;100880.40;;;6.84
68939;BMP180;59064;45.294;11.816;2024-03-29T02:31:29;100879.40;;;6.90
68939;BMP180;59064;45.294;11.816;2024-03-29T02:33:55;100882.60;;;6.90
68939;BMP180;59064;45.294;11.816;2024-03-29T02:36:20;100875.40;;;6.90
68939;BMP180;59064;45.294;11.816;2024-03-29T02:38:46;100870.20;;;6.96
68939;BMP180;59064;45.294;11.816;2024-03-29T02:41:11;100875.80;;;6.98
68939;BMP180;59064;45.294;11.816;2024-03-29T02:43:37;100873.20;;;7.00
68939;BMP180;59064;45.294;11.816;2024-03-29T02:46:03;100878.20;;;7.00
68939;BMP180;59064;45.294;11.816;2024-03-29T02:48:28;100881.60;;;7.00
68939;BMP180;59064;45.294;11.816;2024-03-29T02:50:54;100883.60;;;7.06
68939;BMP180;59064;45.294;11.816;2024-03-29T02:53:20;100889.40;;;7.10
68939;BMP180;59064;45.294;11.816;2024-03-29T02:55:45;100879.60;;;7.10
68939;BMP180;59064;45.294;11.816;2024-03-29T02:58:11;100881.20;;;7.16
68939;BMP180;59064;45.294;11.816;2024-03-29T03:00:36;100881.60;;;7.20
68939;BMP180;59064;45.294;11.816;2024-03-29T03:03:02;100887.60;;;7.20
68939;BMP180;59064;45.294;11.816;2024-03-29T03:05:29;100892.00;;;7.20
68939;BMP180;59064;45.294;11.816;2024-03-29T03:07:54;100888.40;;;7.20
68939;BMP180;59064;45.294;11.816;2024-03-29T03:10:48;100906.60;;;7.20
68939;BMP180;59064;45.294;11.816;2024-03-29T03:13:26;100918.80;;;7.20
68939;BMP180;59064;45.294;11.816;2024-03-29T03:15:52;100917.80;;;7.12
68939;BMP180;59064;45.294;11.816;2024-03-29T03:18:17;100919.60;;;7.10
68939;BMP180;59064;45.294;11.816;2024-03-29T03:20:53;100920.60;;;7.10
68939;BMP180;59064;45.294;11.816;2024-03-29T03:23:20;100916.40;;;7.10
68939;BMP180;59064;45.294;11.816;2024-03-29T03:28:21;100918.60;;;7.00
68939;BMP180;59064;45.294;11.816;2024-03-29T03:30:51;100921.80;;;7.00
68939;BMP180;59064;45.294;11.816;2024-03-29T03:33:17;100924.00;;;7.00
68939;BMP180;59064;45.294;11.816;2024-03-29T03:35:43;100914.60;;;6.90
68939;BMP180;59064;45.294;11.816;2024-03-29T03:38:09;100921.00;;;6.90
68939;BMP180;59064;45.294;11.816;2024-03-29T03:40:35;100935.00;;;6.90
68939;BMP180;59064;45.294;11.816;2024-03-29T03:43:05;100937.60;;;6.90
68939;BMP180;59064;45.294;11.816;2024-03-29T03:45:35;100938.20;;;6.84
68939;BMP180;59064;45.294;11.816;2024-03-29T03:48:05;100936.40;;;6.84
68939;BMP180;59064;45.294;11.816;2024-03-29T03:50:31;100945.20;;;6.80
68939;BMP180;59064;45.294;11.816;2024-03-29T03:52:57;100947.60;;;6.80
68939;BMP180;59064;45.294;11.816;2024-03-29T03:55:23;100947.80;;;6.80
68939;BMP180;59064;45.294;11.816;2024-03-29T03:57:49;100939.00;;;6.80
68939;BMP180;59064;45.294;11.816;2024-03-29T04:00:14;100942.80;;;6.80
68939;BMP180;59064;45.294;11.816;2024-03-29T04:02:40;100945.60;;;6.70
68939;BMP180;59064;45.294;11.816;2024-03-29T04:05:07;100952.20;;;6.70
68939;BMP180;59064;45.294;11.816;2024-03-29T04:07:33;100945.20;;;6.70
68939;BMP180;59064;45.294;11.816;2024-03-29T04:09:58;100951.80;;;6.70
68939;BMP180;59064;45.294;11.816;2024-03-29T04:12:24;100964.20;;;6.70
68939;BMP180;59064;45.294;11.816;2024-03-29T04:14:49;100964.20;;;6.70
68939;BMP180;59064;45.294;11.816;2024-03-29T04:17:15;100960.60;;;6.60
68939;BMP180;59064;45.294;11.816;2024-03-29T04:19:41;100953.80;;;6.60
68939;BMP180;59064;45.294;11.816;2024-03-29T04:22:06;100961.00;;;6.60
68939;BMP180;59064;45.294;11.816;2024-03-29T04:24:32;100968.40;;;6.60
68939;BMP180;59064;45.294;11.816;2024-03-29T04:26:58;100968.20;;;6.60
68939;BMP180;59064;45.294;11.816;2024-03-29T04:29:23;100972.80;;;6.60
68939;BMP180;59064;45.294;11.816;2024-03-29T04:31:49;100979.40;;;6.60
68939;BMP180;59064;45.294;11.816;2024-03-29T04:34:14;100975.40;;;6.60
68939;BMP180;59064;45.294;11.816;2024-03-29T04:36:40;100977.60;;;6.70
68939;BMP180;59064;45.294;11.816;2024-03-29T04:39:06;100975.20;;;6.70
68939;BMP180;59064;45.294;11.816;2024-03-29T04:41:32;100979.20;;;6.70
68939;BMP180;59064;45.294;11.816;2024-03-29T04:44:03;100996.80;;;6.70
68939;BMP180;59064;45.294;11.816;2024-03-29T04:46:30;101002.40;;;6.70
68939;BMP180;59064;45.294;11.816;2024-03-29T04:48:57;100999.80;;;6.78
68939;BMP180;59064;45.294;11.816;2024-03-29T04:51:23;100998.20;;;6.80
68939;BMP180;59064;45.294;11.816;2024-03-29T04:53:48;101004.40;;;6.90
68939;BMP180;59064;45.294;11.816;2024-03-29T04:56:14;101011.20;;;6.90
68939;BMP180;59064;45.294;11.816;2024-03-29T04:58:40;101010.20;;;6.98
68939;BMP180;59064;45.294;11.816;2024-03-29T05:01:25;101023.40;;;7.00
68939;BMP180;59064;45.294;11.816;2024-03-29T05:03:51;101023.00;;;7.00
68939;BMP180;59064;45.294;11.816;2024-03-29T05:06:16;101025.00;;;7.06
68939;BMP180;59064;45.294;11.816;2024-03-29T05:08:42;101030.60;;;7.10
68939;BMP180;59064;45.294;11.816;2024-03-29T05:11:07;101031.80;;;7.10
68939;BMP180;59064;45.294;11.816;2024-03-29T05:13:33;101028.20;;;7.10
68939;BMP180;59064;45.294;11.816;2024-03-29T05:16:00;101031.60;;;7.10
68939;BMP180;59064;45.294;11.816;2024-03-29T05:18:25;101031.40;;;7.20
68939;BMP180;59064;45.294;11.816;2024-03-29T05:20:51;101034.00;;;7.20
68939;BMP180;59064;45.294;11.816;2024-03-29T05:23:17;101039.60;;;7.22
68939;BMP180;59064;45.294;11.816;2024-03-29T05:25:43;101045.40;;;7.30
68939;BMP180;59064;45.294;11.816;2024-03-29T05:28:09;101043.60;;;7.30
68939;BMP180;59064;45.294;11.816;2024-03-29T05:30:35;101038.40;;;7.40
68939;BMP180;59064;45.294;11.816;2024-03-29T05:33:03;101034.40;;;7.46
68939;BMP180;59064;45.294;11.816;2024-03-29T05:35:29;101034.20;;;7.50
68939;BMP180;59064;45.294;11.816;2024-03-29T05:37:55;101051.60;;;7.60
68939;BMP180;59064;45.294;11.816;2024-03-29T05:40:21;101062.20;;;7.62
68939;BMP180;59064;45.294;11.816;2024-03-29T05:42:52;101064.00;;;7.70
68939;BMP180;59064;45.294;11.816;2024-03-29T05:45:28;101070.60;;;7.70
68939;BMP180;59064;45.294;11.816;2024-03-29T05:47:55;101063.20;;;7.80
68939;BMP180;59064;45.294;11.816;2024-03-29T05:50:21;101058.60;;;7.80
68939;BMP180;59064;45.294;11.816;2024-03-29T05:52:47;101050.60;;;7.82
68939;BMP180;59064;45.294;11.816;2024-03-29T05:55:13;101044.60;;;7.90
68939;BMP180;59064;45.294;11.816;2024-03-29T05:57:38;101047.00;;;7.90
68939;BMP180;59064;45.294;11.816;2024-03-29T06:00:07;101061.20;;;7.92
68939;BMP180;59064;45.294;11.816;2024-03-29T06:02:37;101065.80;;;8.00
68939;BMP180;59064;45.294;11.816;2024-03-29T06:05:03;101060.80;;;8.00
68939;BMP180;59064;45.294;11.816;2024-03-29T06:07:30;101060.20;;;8.00
68939;BMP180;59064;45.294;11.816;2024-03-29T06:10:01;101055.20;;;8.00
68939;BMP180;59064;45.294;11.816;2024-03-29T06:12:32;101045.20;;;8.08
68939;BMP180;59064;45.294;11.816;2024-03-29T06:14:57;101056.60;;;8.10
68939;BMP180;59064;45.294;11.816;2024-03-29T06:17:42;101062.40;;;8.10
68939;BMP180;59064;45.294;11.816;2024-03-29T06:20:07;101054.00;;;8.10
68939;BMP180;59064;45.294;11.816;2024-03-29T06:22:33;101055.60;;;8.10
68939;BMP180;59064;45.294;11.816;2024-03-29T06:24:59;101056.20;;;8.16
68939;BMP180;59064;45.294;11.816;2024-03-29T06:27:32;101068.20;;;8.20
68939;BMP180;59064;45.294;11.816;2024-03-29T06:29:58;101068.40;;;8.28
68939;BMP180;59064;45.294;11.816;2024-03-29T06:32:24;101062.20;;;8.30
68939;BMP180;59064;45.294;11.816;2024-03-29T06:34:50;101051.00;;;8.40
68939;BMP180;59064;45.294;11.816;2024-03-29T06:37:15;101055.00;;;8.42
68939;BMP180;59064;45.294;11.816;2024-03-29T06:39:41;101057.20;;;8.50
68939;BMP180;59064;45.294;11.816;2024-03-29T06:42:09;101063.20;;;8.60
68939;BMP180;59064;45.294;11.816;2024-03-29T06:44:37;101072.80;;;8.60
68939;BMP180;59064;45.294;11.816;2024-03-29T06:47:03;101081.60;;;8.70
68939;BMP180;59064;45.294;11.816;2024-03-29T06:49:29;101068.20;;;8.80
68939;BMP180;59064;45.294;11.816;2024-03-29T06:51:55;101076.40;;;8.80
68939;BMP180;59064;45.294;11.816;2024-03-29T06:54:23;101079.40;;;8.90
68939;BMP180;59064;45.294;11.816;2024-03-29T06:56:56;101078.60;;;8.90
68939;BMP180;59064;45.294;11.816;2024-03-29T06:59:22;101068.20;;;8.98
68939;BMP180;59064;45.294;11.816;2024-03-29T07:01:48;101071.80;;;9.00
68939;BMP180;59064;45.294;11.816;2024-03-29T07:04:21;101074.00;;;9.10
68939;BMP180;59064;45.294;11.816;2024-03-29T07:06:47;101080.00;;;9.10
68939;BMP180;59064;45.294;11.816;2024-03-29T07:09:14;101084.80;;;9.20
68939;BMP180;59064;45.294;11.816;2024-03-29T07:11:40;101088.20;;;9.20
68939;BMP180;59064;45.294;11.816;2024-03-29T07:14:06;101089.00;;;9.22
68939;BMP180;59064;45.294;11.816;2024-03-29T07:16:31;101095.00;;;9.30
68939;BMP180;59064;45.294;11.816;2024-03-29T07:18:57;101092.40;;;9.30
68939;BMP180;59064;45.294;11.816;2024-03-29T07:21:23;101086.00;;;9.30
68939;BMP180;59064;45.294;11.816;2024-03-29T07:23:49;101069.40;;;9.40
68939;BMP180;59064;45.294;11.816;2024-03-29T07:26:15;101069.60;;;9.42
68939;BMP180;59064;45.294;11.816;2024-03-29T07:28:40;101073.20;;;9.50
68939;BMP180;59064;45.294;11.816;2024-03-29T07:31:07;101078.00;;;9.50
68939;BMP180;59064;45.294;11.816;2024-03-29T07:33:33;101087.00;;;9.50
68939;BMP180;59064;45.294;11.816;2024-03-29T07:35:58;101090.20;;;9.60
68939;BMP180;59064;45.294;11.816;2024-03-29T07:38:24;101085.80;;;9.70
68939;BMP180;59064;45.294;11.816;2024-03-29T07:40:51;101084.80;;;9.70
68939;BMP180;59064;45.294;11.816;2024-03-29T07:43:18;101087.20;;;9.80
68939;BMP180;59064;45.294;11.816;2024-03-29T07:45:44;101084.80;;;9.90
68939;BMP180;59064;45.294;11.816;2024-03-29T07:48:15;101091.00;;;10.00
68939;BMP180;59064;45.294;11.816;2024-03-29T07:50:41;101089.60;;;10.10
68939;BMP180;59064;45.294;11.816;2024-03-29T07:53:08;101088.60;;;10.10
68939;BMP180;59064;45.294;11.816;2024-03-29T07:55:40;101098.20;;;10.20
68939;BMP180;59064;45.294;11.816;2024-03-29T07:58:06;101095.00;;;10.20
68939;BMP180;59064;45.294;11.816;2024-03-29T08:00:34;101099.80;;;10.30
68939;BMP180;59064;45.294;11.816;2024-03-29T08:03:00;101108.00;;;10.30
68939;BMP180;59064;45.294;11.816;2024-03-29T08:05:29;101110.40;;;10.38
68939;BMP180;59064;45.294;11.816;2024-03-29T08:07:54;101113.20;;;10.40
68939;BMP180;59064;45.294;11.816;2024-03-29T08:10:20;101117.00;;;10.40
68939;BMP180;59064;45.294;11.816;2024-03-29T08:12:46;101117.00;;;10.50
68939;BMP180;59064;45.294;11.816;2024-03-29T08:15:12;101125.00;;;10.60
68939;BMP180;59064;45.294;11.816;2024-03-29T08:17:37;101127.00;;;10.60
68939;BMP180;59064;45.294;11.816;2024-03-29T08:20:04;101136.60;;;10.66
68939;BMP180;59064;45.294;11.816;2024-03-29T08:22:29;101127.20;;;10.60
68939;BMP180;59064;45.294;11.816;2024-03-29T08:25:02;101123.00;;;10.60
68939;BMP180;59064;45.294;11.816;2024-03-29T08:27:28;101127.60;;;10.50
68939;BMP180;59064;45.294;11.816;2024-03-29T08:29:54;101143.00;;;10.50
68939;BMP180;59064;45.294;11.816;2024-03-29T08:32:19;101148.80;;;10.50
68939;BMP180;59064;45.294;11.816;2024-03-29T08:34:45;101145.20;;;10.60
68939;BMP180;59064;45.294;11.816;2024-03-29T08:37:11;101146.20;;;10.70
68939;BMP180;59064;45.294;11.816;2024-03-29T08:39:36;101143.80;;;10.70
68939;BMP180;59064;45.294;11.816;2024-03-29T08:42:04;101140.20;;;10.80
68939;BMP180;59064;45.294;11.816;2024-03-29T08:44:36;101139.60;;;10.90
68939;BMP180;59064;45.294;11.816;2024-03-29T08:47:02;101139.40;;;11.00
68939;BMP180;59064;45.294;11.816;2024-03-29T08:49:28;101139.80;;;11.16
68939;BMP180;59064;45.294;11.816;2024-03-29T08:51:54;101135.40;;;11.20
68939;BMP180;59064;45.294;11.816;2024-03-29T08:54:20;101126.00;;;11.32
68939;BMP180;59064;45.294;11.816;2024-03-29T08:56:45;101127.20;;;11.40
68939;BMP180;59064;45.294;11.816;2024-03-29T08:59:11;101120.60;;;11.50
68939;BMP180;59064;45.294;11.816;2024-03-29T09:01:43;101126.40;;;11.60
68939;BMP180;59064;45.294;11.816;2024-03-29T09:04:09;101135.00;;;11.80
68939;BMP180;59064;45.294;11.816;2024-03-29T09:06:38;101145.80;;;11.86
68939;BMP180;59064;45.294;11.816;2024-03-29T09:09:07;101148.80;;;12.00
68939;BMP180;59064;45.294;11.816;2024-03-29T09:11:33;101131.40;;;12.10
68939;BMP180;59064;45.294;11.816;2024-03-29T09:13:58;101137.20;;;12.16
68939;BMP180;59064;45.294;11.816;2024-03-29T09:16:25;101142.20;;;12.24
68939;BMP180;59064;45.294;11.816;2024-03-29T09:18:51;101148.40;;;12.36
68939;BMP180;59064;45.294;11.816;2024-03-29T09:21:17;101142.60;;;12.50
68939;BMP180;59064;45.294;11.816;2024-03-29T09:23:42;101149.40;;;12.60
68939;BMP180;59064;45.294;11.816;2024-03-29T09:26:08;101140.60;;;12.74
68939;BMP180;59064;45.294;11.816;2024-03-29T09:28:33;101145.80;;;12.90
68939;BMP180;59064;45.294;11.816;2024-03-29T09:31:01;101146.40;;;13.00
68939;BMP180;59064;45.294;11.816;2024-03-29T09:33:27;101144.60;;;13.10
68939;BMP180;59064;45.294;11.816;2024-03-29T09:35:53;101138.00;;;13.10
68939;BMP180;59064;45.294;11.816;2024-03-29T09:38:20;101135.00;;;13.28
68939;BMP180;59064;45.294;11.816;2024-03-29T09:40:46;101135.00;;;13.40
68939;BMP180;59064;45.294;11.816;2024-03-29T09:43:14;101144.80;;;13.50
68939;BMP180;59064;45.294;11.816;2024-03-29T09:45:42;101155.40;;;13.60
68939;BMP180;59064;45.294;11.816;2024-03-29T09:48:08;101145.60;;;13.80
68939;BMP180;59064;45.294;11.816;2024-03-29T09:50:37;101149.80;;;13.96
68939;BMP180;59064;45.294;11.816;2024-03-29T09:53:06;101146.60;;;14.00
68939;BMP180;59064;45.294;11.816;2024-03-29T09:55:33;101146.40;;;13.88
68939;BMP180;59064;45.294;11.816;2024-03-29T09:58:00;101141.20;;;13.82
68939;BMP180;59064;45.294;11.816;2024-03-29T10:00:27;101141.00;;;13.98
68939;BMP180;59064;45.294;11.816;2024-03-29T10:02:55;101129.20;;;14.20
68939;BMP180;59064;45.294;11.816;2024-03-29T10:05:26;101120.00;;;14.30
68939;BMP180;59064;45.294;11.816;2024-03-29T10:07:54;101123.80;;;14.32
68939;BMP180;59064;45.294;11.816;2024-03-29T10:10:21;101130.00;;;14.50
68939;BMP180;59064;45.294;11.816;2024-03-29T10:12:47;101133.40;;;14.70
68939;BMP180;59064;45.294;11.816;2024-03-29T10:15:12;101132.00;;;14.98
68939;BMP180;59064;45.294;11.816;2024-03-29T10:17:46;101121.80;;;15.00
68939;BMP180;59064;45.294;11.816;2024-03-29T10:20:16;101124.00;;;14.82
68939;BMP180;59064;45.294;11.816;2024-03-29T10:22:43;101128.00;;;14.82
68939;BMP180;59064;45.294;11.816;2024-03-29T10:25:13;101137.20;;;14.80
68939;BMP180;59064;45.294;11.816;2024-03-29T10:27:39;101134.80;;;14.86
68939;BMP180;59064;45.294;11.816;2024-03-29T10:30:06;101110.00;;;14.80
68939;BMP180;59064;45.294;11.816;2024-03-29T10:32:34;101115.60;;;14.70
68939;BMP180;59064;45.294;11.816;2024-03-29T10:35:02;101121.00;;;14.80
68939;BMP180;59064;45.294;11.816;2024-03-29T10:37:28;101127.20;;;14.90
68939;BMP180;59064;45.294;11.816;2024-03-29T10:39:54;101139.20;;;15.06
68939;BMP180;59064;45.294;11.816;2024-03-29T10:42:23;101142.20;;;15.20
68939;BMP180;59064;45.294;11.816;2024-03-29T10:44:50;101136.20;;;15.20
68939;BMP180;59064;45.294;11.816;2024-03-29T10:47:19;101132.80;;;15.18
68939;BMP180;59064;45.294;11.816;2024-03-29T10:49:50;101124.40;;;15.20
68939;BMP180;59064;45.294;11.816;2024-03-29T10:52:17;101130.20;;;15.32
68939;BMP180;59064;45.294;11.816;2024-03-29T10:54:45;101125.60;;;15.60
68939;BMP180;59064;45.294;11.816;2024-03-29T10:57:16;101125.40;;;15.90
68939;BMP180;59064;45.294;11.816;2024-03-29T10:59:54;101126.60;;;16.10
68939;BMP180;59064;45.294;11.816;2024-03-29T11:02:33;101124.00;;;16.20
68939;BMP180;59064;45.294;11.816;2024-03-29T11:05:01;101126.60;;;16.30
68939;BMP180;59064;45.294;11.816;2024-03-29T11:07:34;101132.00;;;16.38
68939;BMP180;59064;45.294;11.816;2024-03-29T11:10:04;101133.20;;;16.68
68939;BMP180;59064;45.294;11.816;2024-03-29T11:12:35;101126.60;;;16.84
68939;BMP180;59064;45.294;11.816;2024-03-29T11:15:05;101120.80;;;16.80
68939;BMP180;59064;45.294;11.816;2024-03-29T11:17:36;101124.40;;;16.62
68939;BMP180;59064;45.294;11.816;2024-03-29T11:20:03;101121.60;;;16.56
68939;BMP180;59064;45.294;11.816;2024-03-29T11:22:30;101124.60;;;16.80
68939;BMP180;59064;45.294;11.816;2024-03-29T11:24:55;101123.60;;;16.70
68939;BMP180;59064;45.294;11.816;2024-03-29T11:27:24;101128.60;;;16.84
68939;BMP180;59064;45.294;11.816;2024-03-29T11:29:52;101123.40;;;17.10
68939;BMP180;59064;45.294;11.816;2024-03-29T11:32:37;101110.80;;;17.10
68939;BMP180;59064;45.294;11.816;2024-03-29T11:35:04;101108.80;;;17.06
68939;BMP180;59064;45.294;11.816;2024-03-29T11:37:31;101107.80;;;16.80
68939;BMP180;59064;45.294;11.816;2024-03-29T11:39:59;101099.00;;;16.70
68939;BMP180;59064;45.294;11.816;2024-03-29T11:42:44;101093.20;;;16.70
68939;BMP180;59064;45.294;11.816;2024-03-29T11:45:09;101077.20;;;16.68
68939;BMP180;59064;45.294;11.816;2024-03-29T11:47:38;101080.20;;;16.46
68939;BMP180;59064;45.294;11.816;2024-03-29T11:50:05;101071.40;;;16.40
68939;BMP180;59064;45.294;11.816;2024-03-29T11:52:31;101075.20;;;16.40
68939;BMP180;59064;45.294;11.816;2024-03-29T11:54:57;101078.20;;;16.60
68939;BMP180;59064;45.294;11.816;2024-03-29T11:57:24;101067.60;;;16.70
68939;BMP180;59064;45.294;11.816;2024-03-29T11:59:49;101060.00;;;16.60
68939;BMP180;59064;45.294;11.816;2024-03-29T12:02:15;101057.60;;;16.70
68939;BMP180;59064;45.294;11.816;2024-03-29T12:04:41;101060.40;;;16.86
68939;BMP180;59064;45.294;11.816;2024-03-29T12:07:07;101054.80;;;17.30
68939;BMP180;59064;45.294;11.816;2024-03-29T12:09:32;101055.20;;;17.62
68939;BMP180;59064;45.294;11.816;2024-03-29T12:11:58;101055.60;;;17.90
68939;BMP180;59064;45.294;11.816;2024-03-29T12:14:31;101051.80;;;18.20
68939;BMP180;59064;45.294;11.816;2024-03-29T12:17:01;101049.00;;;18.16
68939;BMP180;59064;45.294;11.816;2024-03-29T12:19:27;101050.00;;;18.30
68939;BMP180;59064;45.294;11.816;2024-03-29T12:21:53;101057.80;;;18.24
68939;BMP180;59064;45.294;11.816;2024-03-29T12:24:20;101054.60;;;18.30
68939;BMP180;59064;45.294;11.816;2024-03-29T12:26:48;101052.20;;;18.40
68939;BMP180;59064;45.294;11.816;2024-03-29T12:29:15;101051.60;;;18.38
68939;BMP180;59064;45.294;11.816;2024-03-29T12:31:41;101045.20;;;18.40
68939;BMP180;59064;45.294;11.816;2024-03-29T12:34:06;101042.60;;;18.60
68939;BMP180;59064;45.294;11.816;2024-03-29T12:36:32;101038.40;;;18.70
68939;BMP180;59064;45.294;11.816;2024-03-29T12:38:58;101039.80;;;18.74
68939;BMP180;59064;45.294;11.816;2024-03-29T12:41:32;101027.20;;;18.90
68939;BMP180;59064;45.294;11.816;2024-03-29T12:43:58;101019.00;;;18.80
68939;BMP180;59064;45.294;11.816;2024-03-29T12:46:27;101016.00;;;18.60
68939;BMP180;59064;45.294;11.816;2024-03-29T12:48:58;101012.40;;;18.60
68939;BMP180;59064;45.294;11.816;2024-03-29T12:51:23;101012.40;;;18.80
68939;BMP180;59064;45.294;11.816;2024-03-29T12:53:49;101011.40;;;18.74
68939;BMP180;59064;45.294;11.816;2024-03-29T12:56:15;101004.60;;;18.70
68939;BMP180;59064;45.294;11.816;2024-03-29T12:58:41;101008.40;;;18.80
68939;BMP180;59064;45.294;11.816;2024-03-29T13:01:06;101003.20;;;19.00
68939;BMP180;59064;45.294;11.816;2024-03-29T13:03:32;100996.00;;;19.30
68939;BMP180;59064;45.294;11.816;2024-03-29T13:05:57;100984.60;;;19.12
68939;BMP180;59064;45.294;11.816;2024-03-29T13:08:23;100987.00;;;19.20
68939;BMP180;59064;45.294;11.816;2024-03-29T13:10:49;100984.40;;;19.28
68939;BMP180;59064;45.294;11.816;2024-03-29T13:13:14;100991.00;;;19.30
68939;BMP180;59064;45.294;11.816;2024-03-29T13:15:41;101003.20;;;19.42
68939;BMP180;59064;45.294;11.816;2024-03-29T13:18:07;101000.40;;;19.64
68939;BMP180;59064;45.294;11.816;2024-03-29T13:20:36;101003.00;;;19.60
68939;BMP180;59064;45.294;11.816;2024-03-29T13:23:06;101006.00;;;19.50
68939;BMP180;59064;45.294;11.816;2024-03-29T13:25:31;101001.00;;;19.22
68939;BMP180;59064;45.294;11.816;2024-03-29T13:27:57;100996.20;;;19.10
68939;BMP180;59064;45.294;11.816;2024-03-29T13:30:24;100990.80;;;18.90
68939;BMP180;59064;45.294;11.816;2024-03-29T13:32:50;100987.60;;;18.80
68939;BMP180;59064;45.294;11.816;2024-03-29T13:35:17;100982.20;;;18.70
68939;BMP180;59064;45.294;11.816;2024-03-29T13:37:45;100987.60;;;18.40
68939;BMP180;59064;45.294;11.816;2024-03-29T13:40:19;100983.00;;;18.22
68939;BMP180;59064;45.294;11.816;2024-03-29T13:42:45;100988.40;;;18.10
68939;BMP180;59064;45.294;11.816;2024-03-29T13:45:11;100995.60;;;18.00
68939;BMP180;59064;45.294;11.816;2024-03-29T13:47:37;100993.60;;;17.86
68939;BMP180;59064;45.294;11.816;2024-03-29T13:50:06;100997.20;;;17.80
68939;BMP180;59064;45.294;11.816;2024-03-29T13:52:33;100995.00;;;17.90
68939;BMP180;59064;45.294;11.816;2024-03-29T13:54:59;100998.80;;;18.06
68939;BMP180;59064;45.294;11.816;2024-03-29T13:57:25;101000.80;;;18.40